sensor_id;sensor_type;location;lat;lon;timestamp;P1;durP1;ratioP1;P2;durP2;ratioP2
77705;SDS011;66874;45.274;5.880;2023-12-22T00:00:26;40.47;;;20.02;;
77705;SDS011;66874;45.274;5.880;2023-12-22T00:02:51;45.70;;;20.95;;
77705;SDS011;66874;45.274;5.880;2023-12-22T00:05:17;33.03;;;17.38;;
77705;SDS011;66874;45.274;5.880;2023-12-22T00:07:42;35.10;;;18.02;;
77705;SDS011;66874;45.274;5.880;2023-12-22T00:10:08;37.47;;;17.55;;
77705;SDS011;66874;45.274;5.880;2023-12-22T00:12:34;30.25;;;16.33;;
77705;SDS011;66874;45.274;5.880;2023-12-22T00:14:59;35.55;;;17.60;;
77705;SDS011;66874;45.274;5.880;2023-12-22T00:17:25;34.58;;;17.50;;
77705;SDS011;66874;45.274;5.880;2023-12-22T00:19:50;33.58;;;17.23;;
77705;SDS011;66874;45.274;5.880;2023-12-22T00:22:16;31.73;;;16.25;;
77705;SDS011;66874;45.274;5.880;2023-12-22T00:24:41;32.08;;;15.75;;
77705;SDS011;66874;45.274;5.880;2023-12-22T00:27:06;31.50;;;15.50;;
77705;SDS011;66874;45.274;5.880;2023-12-22T00:29:32;30.52;;;15.95;;
77705;SDS011;66874;45.274;5.880;2023-12-22T00:32:00;27.70;;;14.38;;
77705;SDS011;66874;45.274;5.880;2023-12-22T00:34:26;25.05;;;13.73;;
77705;SDS011;66874;45.274;5.880;2023-12-22T00:36:51;27.40;;;14.93;;
77705;SDS011;66874;45.274;5.880;2023-12-22T00:39:17;29.67;;;14.75;;
77705;SDS011;66874;45.274;5.880;2023-12-22T00:41:42;35.80;;;16.98;;
77705;SDS011;66874;45.274;5.880;2023-12-22T00:44:08;29.48;;;16.00;;
77705;SDS011;66874;45.274;5.880;2023-12-22T00:46:33;33.60;;;16.25;;
77705;SDS011;66874;45.274;5.880;2023-12-22T00:48:58;30.70;;;16.08;;
77705;SDS011;66874;45.274;5.880;2023-12-22T00:51:24;32.45;;;16.50;;
77705;SDS011;66874;45.274;5.880;2023-12-22T00:53:49;32.53;;;15.75;;
77705;SDS011;66874;45.274;5.880;2023-12-22T00:56:14;31.55;;;15.65;;
77705;SDS011;66874;45.274;5.880;2023-12-22T00:58:40;30.90;;;15.68;;
77705;SDS011;66874;45.274;5.880;2023-12-22T01:01:05;34.47;;;16.33;;
77705;SDS011;66874;45.274;5.880;2023-12-22T01:03:31;28.83;;;15.80;;
77705;SDS011;66874;45.274;5.880;2023-12-22T01:05:56;30.35;;;15.88;;
77705;SDS011;66874;45.274;5.880;2023-12-22T01:08:22;28.67;;;14.68;;
77705;SDS011;66874;45.274;5.880;2023-12-22T01:10:47;31.10;;;16.35;;
77705;SDS011;66874;45.274;5.880;2023-12-22T01:13:13;30.63;;;16.15;;
77705;SDS011;66874;45.274;5.880;2023-12-22T01:15:38;28.65;;;15.55;;
77705;SDS011;66874;45.274;5.880;2023-12-22T01:18:04;29.98;;;15.15;;
77705;SDS011;66874;45.274;5.880;2023-12-22T01:20:30;25.60;;;11.25;;
77705;SDS011;66874;45.274;5.880;2023-12-22T01:22:55;20.25;;;9.80;;
77705;SDS011;66874;45.274;5.880;2023-12-22T01:25:20;23.48;;;13.40;;
77705;SDS011;66874;45.274;5.880;2023-12-22T01:27:46;26.33;;;14.52;;
77705;SDS011;66874;45.274;5.880;2023-12-22T01:30:12;28.30;;;14.68;;
77705;SDS011;66874;45.274;5.880;2023-12-22T01:32:38;26.10;;;13.73;;
77705;SDS011;66874;45.274;5.880;2023-12-22T01:35:03;21.95;;;11.80;;
77705;SDS011;66874;45.274;5.880;2023-12-22T01:37:34;24.65;;;12.82;;
77705;SDS011;66874;45.274;5.880;2023-12-22T01:40:00;24.00;;;11.75;;
77705;SDS011;66874;45.274;5.880;2023-12-22T01:42:25;21.10;;;10.55;;
77705;SDS011;66874;45.274;5.880;2023-12-22T01:44:50;2.95;;;1.60;;
77705;SDS011;66874;45.274;5.880;2023-12-22T01:47:16;3.05;;;1.10;;
77705;SDS011;66874;45.274;5.880;2023-12-22T01:49:41;3.10;;;0.70;;
77705;SDS011;66874;45.274;5.880;2023-12-22T01:52:07;2.25;;;0.80;;
77705;SDS011;66874;45.274;5.880;2023-12-22T01:54:33;7.68;;;4.60;;
77705;SDS011;66874;45.274;5.880;2023-12-22T01:56:59;21.73;;;11.52;;
77705;SDS011;66874;45.274;5.880;2023-12-22T01:59:25;18.15;;;11.35;;
77705;SDS011;66874;45.274;5.880;2023-12-22T02:01:51;20.58;;;12.05;;
77705;SDS011;66874;45.274;5.880;2023-12-22T02:04:18;20.27;;;11.55;;
77705;SDS011;66874;45.274;5.880;2023-12-22T02:06:44;21.70;;;11.63;;
77705;SDS011;66874;45.274;5.880;2023-12-22T02:09:09;28.48;;;14.00;;
77705;SDS011;66874;45.274;5.880;2023-12-22T02:11:36;22.83;;;12.68;;
77705;SDS011;66874;45.274;5.880;2023-12-22T02:14:02;20.65;;;11.60;;
77705;SDS011;66874;45.274;5.880;2023-12-22T02:16:39;23.67;;;12.77;;
77705;SDS011;66874;45.274;5.880;2023-12-22T02:19:54;21.88;;;11.55;;
77705;SDS011;66874;45.274;5.880;2023-12-22T02:22:01;20.88;;;12.07;;
77705;SDS011;66874;45.274;5.880;2023-12-22T02:24:28;22.27;;;11.88;;
77705;SDS011;66874;45.274;5.880;2023-12-22T02:26:55;23.92;;;12.75;;
77705;SDS011;66874;45.274;5.880;2023-12-22T02:29:31;19.05;;;12.02;;
77705;SDS011;66874;45.274;5.880;2023-12-22T02:32:01;19.67;;;11.98;;
77705;SDS011;66874;45.274;5.880;2023-12-22T02:34:32;23.13;;;10.80;;
77705;SDS011;66874;45.274;5.880;2023-12-22T02:37:03;24.45;;;12.52;;
77705;SDS011;66874;45.274;5.880;2023-12-22T02:39:32;24.83;;;12.18;;
77705;SDS011;66874;45.274;5.880;2023-12-22T02:41:58;21.95;;;10.98;;
77705;SDS011;66874;45.274;5.880;2023-12-22T02:44:25;21.03;;;11.27;;
77705;SDS011;66874;45.274;5.880;2023-12-22T02:46:51;15.40;;;8.10;;
77705;SDS011;66874;45.274;5.880;2023-12-22T02:49:16;18.30;;;10.32;;
77705;SDS011;66874;45.274;5.880;2023-12-22T02:51:43;18.77;;;9.43;;
77705;SDS011;66874;45.274;5.880;2023-12-22T02:54:09;16.08;;;9.15;;
77705;SDS011;66874;45.274;5.880;2023-12-22T02:56:34;16.33;;;9.15;;
77705;SDS011;66874;45.274;5.880;2023-12-22T02:59:00;16.10;;;8.43;;
77705;SDS011;66874;45.274;5.880;2023-12-22T03:01:25;17.13;;;9.65;;
77705;SDS011;66874;45.274;5.880;2023-12-22T03:03:50;12.88;;;8.02;;
77705;SDS011;66874;45.274;5.880;2023-12-22T03:06:16;21.48;;;10.98;;
77705;SDS011;66874;45.274;5.880;2023-12-22T03:08:41;21.08;;;10.15;;
77705;SDS011;66874;45.274;5.880;2023-12-22T03:11:07;20.50;;;10.48;;
77705;SDS011;66874;45.274;5.880;2023-12-22T03:13:32;24.80;;;12.07;;
77705;SDS011;66874;45.274;5.880;2023-12-22T03:15:57;21.08;;;11.73;;
77705;SDS011;66874;45.274;5.880;2023-12-22T03:18:22;20.77;;;11.55;;
77705;SDS011;66874;45.274;5.880;2023-12-22T03:20:48;18.38;;;10.75;;
77705;SDS011;66874;45.274;5.880;2023-12-22T03:23:13;23.08;;;10.95;;
77705;SDS011;66874;45.274;5.880;2023-12-22T03:25:39;17.63;;;8.50;;
77705;SDS011;66874;45.274;5.880;2023-12-22T03:28:04;15.95;;;8.32;;
77705;SDS011;66874;45.274;5.880;2023-12-22T03:30:29;15.20;;;7.45;;
77705;SDS011;66874;45.274;5.880;2023-12-22T03:32:55;14.50;;;6.93;;
77705;SDS011;66874;45.274;5.880;2023-12-22T03:35:20;7.07;;;4.20;;
77705;SDS011;66874;45.274;5.880;2023-12-22T03:37:45;6.32;;;3.85;;
77705;SDS011;66874;45.274;5.880;2023-12-22T03:40:11;8.20;;;3.35;;
77705;SDS011;66874;45.274;5.880;2023-12-22T03:42:36;5.13;;;2.00;;
77705;SDS011;66874;45.274;5.880;2023-12-22T03:45:02;7.55;;;3.42;;
77705;SDS011;66874;45.274;5.880;2023-12-22T03:47:27;7.07;;;3.83;;
77705;SDS011;66874;45.274;5.880;2023-12-22T03:49:53;6.43;;;4.45;;
77705;SDS011;66874;45.274;5.880;2023-12-22T03:52:18;7.00;;;4.30;;
77705;SDS011;66874;45.274;5.880;2023-12-22T03:54:43;12.77;;;5.80;;
77705;SDS011;66874;45.274;5.880;2023-12-22T03:57:09;8.88;;;5.60;;
77705;SDS011;66874;45.274;5.880;2023-12-22T03:59:34;9.70;;;4.85;;
77705;SDS011;66874;45.274;5.880;2023-12-22T04:01:59;12.43;;;7.22;;
77705;SDS011;66874;45.274;5.880;2023-12-22T04:04:26;16.85;;;7.97;;
77705;SDS011;66874;45.274;5.880;2023-12-22T04:06:53;14.30;;;6.18;;
77705;SDS011;66874;45.274;5.880;2023-12-22T04:09:18;8.10;;;5.10;;
77705;SDS011;66874;45.274;5.880;2023-12-22T04:11:44;9.43;;;4.72;;
77705;SDS011;66874;45.274;5.880;2023-12-22T04:14:09;5.43;;;2.90;;
77705;SDS011;66874;45.274;5.880;2023-12-22T04:16:38;7.25;;;4.13;;
77705;SDS011;66874;45.274;5.880;2023-12-22T04:19:03;7.38;;;4.55;;
77705;SDS011;66874;45.274;5.880;2023-12-22T04:21:29;6.30;;;2.90;;
77705;SDS011;66874;45.274;5.880;2023-12-22T04:23:55;4.53;;;2.88;;
77705;SDS011;66874;45.274;5.880;2023-12-22T04:26:20;5.13;;;2.70;;
77705;SDS011;66874;45.274;5.880;2023-12-22T04:28:45;3.05;;;1.98;;
77705;SDS011;66874;45.274;5.880;2023-12-22T04:31:11;4.47;;;2.78;;
77705;SDS011;66874;45.274;5.880;2023-12-22T04:33:36;6.47;;;3.00;;
77705;SDS011;66874;45.274;5.880;2023-12-22T04:36:01;8.60;;;2.67;;
77705;SDS011;66874;45.274;5.880;2023-12-22T04:38:27;6.07;;;3.40;;
77705;SDS011;66874;45.274;5.880;2023-12-22T04:40:52;9.07;;;3.63;;
77705;SDS011;66874;45.274;5.880;2023-12-22T04:43:18;4.07;;;2.97;;
77705;SDS011;66874;45.274;5.880;2023-12-22T04:45:43;6.60;;;3.95;;
77705;SDS011;66874;45.274;5.880;2023-12-22T04:48:09;4.13;;;1.40;;
77705;SDS011;66874;45.274;5.880;2023-12-22T04:50:34;1.75;;;0.60;;
77705;SDS011;66874;45.274;5.880;2023-12-22T04:52:59;1.42;;;0.22;;
77705;SDS011;66874;45.274;5.880;2023-12-22T04:55:25;0.57;;;0.50;;
77705;SDS011;66874;45.274;5.880;2023-12-22T04:57:50;1.92;;;0.30;;
77705;SDS011;66874;45.274;5.880;2023-12-22T05:00:16;1.65;;;0.50;;
77705;SDS011;66874;45.274;5.880;2023-12-22T05:02:41;1.35;;;0.40;;
77705;SDS011;66874;45.274;5.880;2023-12-22T05:05:06;5.47;;;2.83;;
77705;SDS011;66874;45.274;5.880;2023-12-22T05:07:33;6.15;;;3.63;;
77705;SDS011;66874;45.274;5.880;2023-12-22T05:09:58;9.38;;;4.85;;
77705;SDS011;66874;45.274;5.880;2023-12-22T05:12:24;6.90;;;3.78;;
77705;SDS011;66874;45.274;5.880;2023-12-22T05:14:49;7.55;;;4.22;;
77705;SDS011;66874;45.274;5.880;2023-12-22T05:17:15;5.78;;;4.05;;
77705;SDS011;66874;45.274;5.880;2023-12-22T05:19:40;8.75;;;4.25;;
77705;SDS011;66874;45.274;5.880;2023-12-22T05:22:05;7.32;;;3.53;;
77705;SDS011;66874;45.274;5.880;2023-12-22T05:24:31;6.38;;;3.30;;
77705;SDS011;66874;45.274;5.880;2023-12-22T05:26:56;4.57;;;2.47;;
77705;SDS011;66874;45.274;5.880;2023-12-22T05:29:21;5.00;;;2.33;;
77705;SDS011;66874;45.274;5.880;2023-12-22T05:31:47;3.15;;;2.42;;
77705;SDS011;66874;45.274;5.880;2023-12-22T05:34:12;3.13;;;2.15;;
77705;SDS011;66874;45.274;5.880;2023-12-22T05:36:37;3.55;;;1.80;;
77705;SDS011;66874;45.274;5.880;2023-12-22T05:39:03;4.30;;;2.40;;
77705;SDS011;66874;45.274;5.880;2023-12-22T05:41:28;5.38;;;2.50;;
77705;SDS011;66874;45.274;5.880;2023-12-22T05:43:54;5.10;;;2.28;;
77705;SDS011;66874;45.274;5.880;2023-12-22T05:46:19;7.28;;;2.53;;
77705;SDS011;66874;45.274;5.880;2023-12-22T05:48:44;4.32;;;1.90;;
77705;SDS011;66874;45.274;5.880;2023-12-22T05:51:10;5.18;;;2.38;;
77705;SDS011;66874;45.274;5.880;2023-12-22T05:53:39;4.50;;;3.05;;
77705;SDS011;66874;45.274;5.880;2023-12-22T05:56:05;6.93;;;3.47;;
77705;SDS011;66874;45.274;5.880;2023-12-22T05:58:42;5.20;;;3.30;;
77705;SDS011;66874;45.274;5.880;2023-12-22T06:01:07;5.30;;;3.42;;
77705;SDS011;66874;45.274;5.880;2023-12-22T06:03:33;5.75;;;3.45;;
77705;SDS011;66874;45.274;5.880;2023-12-22T06:05:58;3.78;;;2.72;;
77705;SDS011;66874;45.274;5.880;2023-12-22T06:08:23;7.65;;;3.38;;
77705;SDS011;66874;45.274;5.880;2023-12-22T06:10:49;7.15;;;3.70;;
77705;SDS011;66874;45.274;5.880;2023-12-22T06:13:14;4.53;;;2.60;;
77705;SDS011;66874;45.274;5.880;2023-12-22T06:15:40;5.25;;;2.85;;
77705;SDS011;66874;45.274;5.880;2023-12-22T06:18:05;4.97;;;3.08;;
77705;SDS011;66874;45.274;5.880;2023-12-22T06:20:31;7.72;;;3.15;;
77705;SDS011;66874;45.274;5.880;2023-12-22T06:22:56;8.30;;;4.05;;
77705;SDS011;66874;45.274;5.880;2023-12-22T06:25:22;6.32;;;3.70;;
77705;SDS011;66874;45.274;5.880;2023-12-22T06:27:47;5.22;;;3.65;;
77705;SDS011;66874;45.274;5.880;2023-12-22T06:30:12;4.03;;;3.28;;
77705;SDS011;66874;45.274;5.880;2023-12-22T06:32:38;7.25;;;3.00;;
77705;SDS011;66874;45.274;5.880;2023-12-22T06:35:06;4.72;;;2.38;;
77705;SDS011;66874;45.274;5.880;2023-12-22T06:37:32;9.63;;;3.05;;
77705;SDS011;66874;45.274;5.880;2023-12-22T06:39:58;3.80;;;2.17;;
77705;SDS011;66874;45.274;5.880;2023-12-22T06:42:23;3.38;;;2.45;;
77705;SDS011;66874;45.274;5.880;2023-12-22T06:44:48;4.43;;;3.05;;
77705;SDS011;66874;45.274;5.880;2023-12-22T06:47:14;4.38;;;3.42;;
77705;SDS011;66874;45.274;5.880;2023-12-22T06:49:39;4.82;;;3.30;;
77705;SDS011;66874;45.274;5.880;2023-12-22T06:52:05;5.75;;;3.03;;
77705;SDS011;66874;45.274;5.880;2023-12-22T06:54:30;3.83;;;2.60;;
77705;SDS011;66874;45.274;5.880;2023-12-22T06:56:55;5.43;;;3.38;;
77705;SDS011;66874;45.274;5.880;2023-12-22T06:59:21;6.65;;;2.90;;
77705;SDS011;66874;45.274;5.880;2023-12-22T07:01:46;3.38;;;2.53;;
77705;SDS011;66874;45.274;5.880;2023-12-22T07:04:12;5.30;;;3.17;;
77705;SDS011;66874;45.274;5.880;2023-12-22T07:06:37;3.83;;;2.42;;
77705;SDS011;66874;45.274;5.880;2023-12-22T07:11:37;45.58;;;23.70;;
77705;SDS011;66874;45.274;5.880;2023-12-22T07:14:06;11.00;;;5.22;;
77705;SDS011;66874;45.274;5.880;2023-12-22T07:16:35;5.18;;;3.53;;
77705;SDS011;66874;45.274;5.880;2023-12-22T07:19:00;3.92;;;3.25;;
77705;SDS011;66874;45.274;5.880;2023-12-22T07:21:26;12.13;;;6.15;;
77705;SDS011;66874;45.274;5.880;2023-12-22T07:23:51;20.88;;;10.07;;
77705;SDS011;66874;45.274;5.880;2023-12-22T07:26:17;28.05;;;14.52;;
77705;SDS011;66874;45.274;5.880;2023-12-22T07:28:42;23.58;;;9.35;;
77705;SDS011;66874;45.274;5.880;2023-12-22T07:31:08;11.20;;;7.38;;
77705;SDS011;66874;45.274;5.880;2023-12-22T07:33:33;12.23;;;7.82;;
77705;SDS011;66874;45.274;5.880;2023-12-22T07:35:59;12.05;;;6.70;;
77705;SDS011;66874;45.274;5.880;2023-12-22T07:38:24;11.98;;;6.28;;
77705;SDS011;66874;45.274;5.880;2023-12-22T07:40:49;8.82;;;5.82;;
77705;SDS011;66874;45.274;5.880;2023-12-22T07:43:15;7.15;;;4.45;;
77705;SDS011;66874;45.274;5.880;2023-12-22T07:45:41;9.02;;;5.35;;
77705;SDS011;66874;45.274;5.880;2023-12-22T07:48:06;13.00;;;5.80;;
77705;SDS011;66874;45.274;5.880;2023-12-22T07:50:32;6.85;;;4.07;;
77705;SDS011;66874;45.274;5.880;2023-12-22T07:52:58;13.10;;;7.32;;
77705;SDS011;66874;45.274;5.880;2023-12-22T07:55:23;9.77;;;6.32;;
77705;SDS011;66874;45.274;5.880;2023-12-22T07:57:49;7.28;;;4.50;;
77705;SDS011;66874;45.274;5.880;2023-12-22T08:00:15;8.90;;;3.88;;
77705;SDS011;66874;45.274;5.880;2023-12-22T08:02:41;7.22;;;3.95;;
77705;SDS011;66874;45.274;5.880;2023-12-22T08:05:07;10.05;;;5.20;;
77705;SDS011;66874;45.274;5.880;2023-12-22T08:07:32;14.95;;;6.05;;
77705;SDS011;66874;45.274;5.880;2023-12-22T08:09:58;7.65;;;4.70;;
77705;SDS011;66874;45.274;5.880;2023-12-22T08:12:23;12.98;;;6.53;;
77705;SDS011;66874;45.274;5.880;2023-12-22T08:14:48;12.85;;;5.93;;
77705;SDS011;66874;45.274;5.880;2023-12-22T08:17:14;5.10;;;3.35;;
77705;SDS011;66874;45.274;5.880;2023-12-22T08:19:39;6.75;;;4.18;;
77705;SDS011;66874;45.274;5.880;2023-12-22T08:22:09;5.57;;;3.90;;
77705;SDS011;66874;45.274;5.880;2023-12-22T08:24:35;13.25;;;6.47;;
77705;SDS011;66874;45.274;5.880;2023-12-22T08:27:00;13.15;;;7.63;;
77705;SDS011;66874;45.274;5.880;2023-12-22T08:29:25;16.13;;;6.97;;
77705;SDS011;66874;45.274;5.880;2023-12-22T08:31:51;22.23;;;15.35;;
77705;SDS011;66874;45.274;5.880;2023-12-22T08:34:17;16.67;;;8.98;;
77705;SDS011;66874;45.274;5.880;2023-12-22T08:36:42;14.73;;;8.43;;
77705;SDS011;66874;45.274;5.880;2023-12-22T08:39:07;16.77;;;8.93;;
77705;SDS011;66874;45.274;5.880;2023-12-22T08:41:33;14.95;;;8.32;;
77705;SDS011;66874;45.274;5.880;2023-12-22T08:44:04;42.42;;;24.23;;
77705;SDS011;66874;45.274;5.880;2023-12-22T08:46:31;20.52;;;10.75;;
77705;SDS011;66874;45.274;5.880;2023-12-22T08:48:56;36.63;;;18.00;;
77705;SDS011;66874;45.274;5.880;2023-12-22T08:51:24;41.17;;;18.73;;
77705;SDS011;66874;45.274;5.880;2023-12-22T08:53:49;22.80;;;12.73;;
77705;SDS011;66874;45.274;5.880;2023-12-22T08:56:15;15.63;;;8.90;;
77705;SDS011;66874;45.274;5.880;2023-12-22T08:58:42;15.13;;;8.77;;
77705;SDS011;66874;45.274;5.880;2023-12-22T09:01:07;14.13;;;7.78;;
77705;SDS011;66874;45.274;5.880;2023-12-22T09:03:33;14.63;;;7.43;;
77705;SDS011;66874;45.274;5.880;2023-12-22T09:05:58;11.52;;;5.13;;
77705;SDS011;66874;45.274;5.880;2023-12-22T09:08:24;6.78;;;5.25;;
77705;SDS011;66874;45.274;5.880;2023-12-22T09:10:50;8.40;;;6.07;;
77705;SDS011;66874;45.274;5.880;2023-12-22T09:13:16;9.10;;;5.28;;
77705;SDS011;66874;45.274;5.880;2023-12-22T09:15:42;8.80;;;3.40;;
77705;SDS011;66874;45.274;5.880;2023-12-22T09:18:07;13.55;;;4.70;;
77705;SDS011;66874;45.274;5.880;2023-12-22T09:20:32;7.78;;;5.63;;
77705;SDS011;66874;45.274;5.880;2023-12-22T09:22:58;9.30;;;6.50;;
77705;SDS011;66874;45.274;5.880;2023-12-22T09:25:23;17.17;;;7.70;;
77705;SDS011;66874;45.274;5.880;2023-12-22T09:27:49;18.45;;;9.50;;
77705;SDS011;66874;45.274;5.880;2023-12-22T09:30:14;14.68;;;7.57;;
77705;SDS011;66874;45.274;5.880;2023-12-22T09:32:40;9.57;;;6.18;;
77705;SDS011;66874;45.274;5.880;2023-12-22T09:35:05;12.25;;;6.35;;
77705;SDS011;66874;45.274;5.880;2023-12-22T09:37:31;11.95;;;7.30;;
77705;SDS011;66874;45.274;5.880;2023-12-22T09:39:56;13.98;;;7.25;;
77705;SDS011;66874;45.274;5.880;2023-12-22T09:42:21;11.68;;;6.90;;
77705;SDS011;66874;45.274;5.880;2023-12-22T09:44:50;10.05;;;6.60;;
77705;SDS011;66874;45.274;5.880;2023-12-22T09:47:20;9.05;;;5.63;;
77705;SDS011;66874;45.274;5.880;2023-12-22T09:49:47;10.82;;;6.95;;
77705;SDS011;66874;45.274;5.880;2023-12-22T09:52:14;7.50;;;5.55;;
77705;SDS011;66874;45.274;5.880;2023-12-22T09:54:41;13.32;;;7.28;;
77705;SDS011;66874;45.274;5.880;2023-12-22T09:57:08;11.52;;;6.93;;
77705;SDS011;66874;45.274;5.880;2023-12-22T09:59:35;28.60;;;13.52;;
77705;SDS011;66874;45.274;5.880;2023-12-22T10:02:00;24.75;;;11.10;;
77705;SDS011;66874;45.274;5.880;2023-12-22T10:04:29;33.42;;;15.38;;
77705;SDS011;66874;45.274;5.880;2023-12-22T10:06:56;22.63;;;10.85;;
77705;SDS011;66874;45.274;5.880;2023-12-22T10:09:25;30.65;;;15.27;;
77705;SDS011;66874;45.274;5.880;2023-12-22T10:11:51;18.80;;;10.48;;
77705;SDS011;66874;45.274;5.880;2023-12-22T10:14:18;14.37;;;8.27;;
77705;SDS011;66874;45.274;5.880;2023-12-22T10:16:48;10.90;;;5.72;;
77705;SDS011;66874;45.274;5.880;2023-12-22T10:19:14;26.67;;;11.45;;
77705;SDS011;66874;45.274;5.880;2023-12-22T10:21:40;11.48;;;7.00;;
77705;SDS011;66874;45.274;5.880;2023-12-22T10:24:05;14.05;;;7.47;;
77705;SDS011;66874;45.274;5.880;2023-12-22T10:26:31;13.63;;;7.25;;
77705;SDS011;66874;45.274;5.880;2023-12-22T10:28:56;16.17;;;9.15;;
77705;SDS011;66874;45.274;5.880;2023-12-22T10:31:22;7.97;;;5.25;;
77705;SDS011;66874;45.274;5.880;2023-12-22T10:33:47;7.30;;;4.63;;
77705;SDS011;66874;45.274;5.880;2023-12-22T10:36:13;8.00;;;4.28;;
77705;SDS011;66874;45.274;5.880;2023-12-22T10:38:39;7.47;;;4.13;;
77705;SDS011;66874;45.274;5.880;2023-12-22T10:41:05;8.95;;;4.40;;
77705;SDS011;66874;45.274;5.880;2023-12-22T10:43:36;7.80;;;4.30;;
77705;SDS011;66874;45.274;5.880;2023-12-22T10:46:03;8.35;;;5.05;;
77705;SDS011;66874;45.274;5.880;2023-12-22T10:48:28;10.48;;;6.15;;
77705;SDS011;66874;45.274;5.880;2023-12-22T10:50:54;8.43;;;5.53;;
77705;SDS011;66874;45.274;5.880;2023-12-22T10:53:20;10.10;;;5.90;;
77705;SDS011;66874;45.274;5.880;2023-12-22T10:55:46;11.27;;;6.28;;
77705;SDS011;66874;45.274;5.880;2023-12-22T10:58:15;10.25;;;5.20;;
77705;SDS011;66874;45.274;5.880;2023-12-22T11:00:41;7.93;;;4.57;;
77705;SDS011;66874;45.274;5.880;2023-12-22T11:03:12;6.70;;;4.30;;
77705;SDS011;66874;45.274;5.880;2023-12-22T11:05:43;5.25;;;3.83;;
77705;SDS011;66874;45.274;5.880;2023-12-22T11:08:11;9.00;;;5.05;;
77705;SDS011;66874;45.274;5.880;2023-12-22T11:10:37;8.68;;;5.30;;
77705;SDS011;66874;45.274;5.880;2023-12-22T11:13:06;12.88;;;6.35;;
77705;SDS011;66874;45.274;5.880;2023-12-22T11:15:34;12.40;;;7.15;;
77705;SDS011;66874;45.274;5.880;2023-12-22T11:18:01;14.73;;;7.90;;
77705;SDS011;66874;45.274;5.880;2023-12-22T11:20:26;15.10;;;8.82;;
77705;SDS011;66874;45.274;5.880;2023-12-22T11:22:57;16.52;;;10.18;;
77705;SDS011;66874;45.274;5.880;2023-12-22T11:25:24;13.18;;;7.75;;
77705;SDS011;66874;45.274;5.880;2023-12-22T11:27:52;13.35;;;8.15;;
77705;SDS011;66874;45.274;5.880;2023-12-22T11:30:21;22.30;;;10.55;;
77705;SDS011;66874;45.274;5.880;2023-12-22T11:32:49;29.23;;;12.63;;
77705;SDS011;66874;45.274;5.880;2023-12-22T11:35:15;16.27;;;7.18;;
77705;SDS011;66874;45.274;5.880;2023-12-22T11:37:42;11.38;;;3.45;;
77705;SDS011;66874;45.274;5.880;2023-12-22T11:40:08;5.20;;;3.28;;
77705;SDS011;66874;45.274;5.880;2023-12-22T11:42:38;7.47;;;3.63;;
77705;SDS011;66874;45.274;5.880;2023-12-22T11:45:11;5.78;;;3.45;;
77705;SDS011;66874;45.274;5.880;2023-12-22T11:47:38;5.90;;;3.08;;
77705;SDS011;66874;45.274;5.880;2023-12-22T11:50:04;4.03;;;2.15;;
77705;SDS011;66874;45.274;5.880;2023-12-22T11:52:34;2.55;;;1.65;;
77705;SDS011;66874;45.274;5.880;2023-12-22T11:55:00;2.95;;;1.58;;
77705;SDS011;66874;45.274;5.880;2023-12-22T11:59:55;21.50;;;9.77;;
77705;SDS011;66874;45.274;5.880;2023-12-22T12:02:21;20.45;;;8.13;;
77705;SDS011;66874;45.274;5.880;2023-12-22T12:04:50;7.88;;;3.72;;
77705;SDS011;66874;45.274;5.880;2023-12-22T12:10:11;10.38;;;5.10;;
77705;SDS011;66874;45.274;5.880;2023-12-22T12:12:37;9.82;;;5.45;;
77705;SDS011;66874;45.274;5.880;2023-12-22T12:15:08;6.43;;;4.65;;
77705;SDS011;66874;45.274;5.880;2023-12-22T12:17:39;8.48;;;5.28;;
77705;SDS011;66874;45.274;5.880;2023-12-22T12:20:06;10.43;;;4.72;;
77705;SDS011;66874;45.274;5.880;2023-12-22T12:22:33;10.15;;;5.85;;
77705;SDS011;66874;45.274;5.880;2023-12-22T12:24:59;9.52;;;5.15;;
77705;SDS011;66874;45.274;5.880;2023-12-22T12:27:26;9.85;;;4.95;;
77705;SDS011;66874;45.274;5.880;2023-12-22T12:29:52;5.15;;;3.53;;
77705;SDS011;66874;45.274;5.880;2023-12-22T12:32:18;6.85;;;3.38;;
77705;SDS011;66874;45.274;5.880;2023-12-22T12:34:47;4.13;;;3.40;;
77705;SDS011;66874;45.274;5.880;2023-12-22T12:37:15;7.30;;;3.20;;
77705;SDS011;66874;45.274;5.880;2023-12-22T12:39:41;6.93;;;3.65;;
77705;SDS011;66874;45.274;5.880;2023-12-22T12:42:08;6.97;;;3.75;;
77705;SDS011;66874;45.274;5.880;2023-12-22T12:44:40;5.00;;;3.30;;
77705;SDS011;66874;45.274;5.880;2023-12-22T12:47:11;4.57;;;3.15;;
77705;SDS011;66874;45.274;5.880;2023-12-22T12:49:39;4.70;;;3.47;;
77705;SDS011;66874;45.274;5.880;2023-12-22T12:52:05;5.65;;;3.40;;
77705;SDS011;66874;45.274;5.880;2023-12-22T12:54:31;6.30;;;3.38;;
77705;SDS011;66874;45.274;5.880;2023-12-22T12:56:57;5.72;;;3.10;;
77705;SDS011;66874;45.274;5.880;2023-12-22T12:59:22;6.93;;;3.63;;
77705;SDS011;66874;45.274;5.880;2023-12-22T13:01:48;6.95;;;3.95;;
77705;SDS011;66874;45.274;5.880;2023-12-22T13:04:14;5.38;;;3.92;;
77705;SDS011;66874;45.274;5.880;2023-12-22T13:06:46;8.02;;;4.05;;
77705;SDS011;66874;45.274;5.880;2023-12-22T13:09:15;6.50;;;3.90;;
77705;SDS011;66874;45.274;5.880;2023-12-22T13:11:42;11.25;;;9.25;;
77705;SDS011;66874;45.274;5.880;2023-12-22T13:14:09;7.97;;;4.43;;
77705;SDS011;66874;45.274;5.880;2023-12-22T13:16:35;8.38;;;3.88;;
77705;SDS011;66874;45.274;5.880;2023-12-22T13:19:02;9.40;;;5.22;;
77705;SDS011;66874;45.274;5.880;2023-12-22T13:21:28;5.88;;;4.15;;
77705;SDS011;66874;45.274;5.880;2023-12-22T13:24:10;7.97;;;4.13;;
77705;SDS011;66874;45.274;5.880;2023-12-22T13:29:09;6.85;;;3.33;;
77705;SDS011;66874;45.274;5.880;2023-12-22T13:31:41;7.50;;;4.37;;
77705;SDS011;66874;45.274;5.880;2023-12-22T13:34:11;9.43;;;5.95;;
77705;SDS011;66874;45.274;5.880;2023-12-22T13:36:38;12.65;;;6.63;;
77705;SDS011;66874;45.274;5.880;2023-12-22T13:39:04;12.95;;;6.50;;
77705;SDS011;66874;45.274;5.880;2023-12-22T13:41:34;10.07;;;6.15;;
77705;SDS011;66874;45.274;5.880;2023-12-22T13:44:06;11.60;;;6.13;;
77705;SDS011;66874;45.274;5.880;2023-12-22T13:46:32;13.27;;;7.85;;
77705;SDS011;66874;45.274;5.880;2023-12-22T13:49:00;18.52;;;9.48;;
77705;SDS011;66874;45.274;5.880;2023-12-22T13:51:26;14.38;;;7.38;;
77705;SDS011;66874;45.274;5.880;2023-12-22T13:53:51;12.50;;;6.50;;
77705;SDS011;66874;45.274;5.880;2023-12-22T13:56:17;10.75;;;7.00;;
77705;SDS011;66874;45.274;5.880;2023-12-22T13:58:46;18.33;;;12.30;;
77705;SDS011;66874;45.274;5.880;2023-12-22T14:01:15;20.40;;;9.13;;
77705;SDS011;66874;45.274;5.880;2023-12-22T14:03:44;26.63;;;11.15;;
77705;SDS011;66874;45.274;5.880;2023-12-22T14:06:11;13.73;;;7.50;;
77705;SDS011;66874;45.274;5.880;2023-12-22T14:08:38;16.23;;;7.72;;
77705;SDS011;66874;45.274;5.880;2023-12-22T14:11:05;12.52;;;6.65;;
77705;SDS011;66874;45.274;5.880;2023-12-22T14:13:33;9.85;;;5.82;;
77705;SDS011;66874;45.274;5.880;2023-12-22T14:16:04;10.60;;;6.07;;
77705;SDS011;66874;45.274;5.880;2023-12-22T14:18:30;9.73;;;6.97;;
77705;SDS011;66874;45.274;5.880;2023-12-22T14:20:56;13.15;;;7.72;;
77705;SDS011;66874;45.274;5.880;2023-12-22T14:23:24;15.15;;;8.40;;
77705;SDS011;66874;45.274;5.880;2023-12-22T14:25:59;13.73;;;7.00;;
77705;SDS011;66874;45.274;5.880;2023-12-22T14:28:53;12.23;;;7.00;;
77705;SDS011;66874;45.274;5.880;2023-12-22T14:31:18;20.25;;;11.13;;
77705;SDS011;66874;45.274;5.880;2023-12-22T14:33:46;12.82;;;6.35;;
77705;SDS011;66874;45.274;5.880;2023-12-22T14:36:11;8.85;;;3.97;;
77705;SDS011;66874;45.274;5.880;2023-12-22T14:38:36;10.65;;;5.40;;
77705;SDS011;66874;45.274;5.880;2023-12-22T14:41:02;12.48;;;5.82;;
77705;SDS011;66874;45.274;5.880;2023-12-22T14:43:27;14.45;;;7.68;;